createdAt,value
2022-12-27T00:00:43.291Z,2.12
2022-12-27T00:03:49.890Z,2.20
2022-12-27T00:06:56.462Z,2.26
2022-12-27T00:10:03.272Z,2.29
2022-12-27T00:13:10.830Z,2.32
2022-12-27T00:16:25.665Z,2.36
2022-12-27T00:19:30.782Z,2.39
2022-12-27T00:22:31.764Z,2.43
2022-12-27T00:25:37.783Z,2.45
2022-12-27T00:28:45.902Z,2.49
2022-12-27T00:31:52.224Z,2.50
2022-12-27T00:35:00.305Z,2.54
2022-12-27T00:38:07.715Z,2.54
2022-12-27T00:41:12.743Z,2.57
2022-12-27T00:44:18.103Z,2.56
2022-12-27T00:47:24.507Z,2.53
2022-12-27T00:50:31.967Z,2.47
2022-12-27T00:53:38.005Z,2.40
2022-12-27T00:56:44.839Z,2.36
2022-12-27T00:59:50.384Z,2.31
2022-12-27T01:02:56.432Z,2.30
2022-12-27T01:06:03.686Z,2.28
2022-12-27T01:09:10.755Z,2.29
2022-12-27T01:12:16.936Z,2.27
2022-12-27T01:15:25.485Z,2.24
2022-12-27T01:18:31.251Z,2.16
2022-12-27T01:21:38.732Z,2.10
2022-12-27T01:24:47.341Z,2.05
2022-12-27T01:27:53.862Z,2.04
2022-12-27T01:30:59.226Z,2.03
2022-12-27T01:34:12.823Z,2.05
2022-12-27T01:37:19.052Z,2.07
2022-12-27T01:40:27.493Z,2.11
2022-12-27T01:43:33.268Z,2.06
2022-12-27T01:46:40.783Z,2.03
2022-12-27T01:49:46.913Z,1.93
2022-12-27T01:52:57.042Z,1.82
2022-12-27T01:56:11.237Z,1.72
2022-12-27T01:59:22.948Z,1.61
2022-12-27T02:02:28.856Z,1.52
2022-12-27T02:05:36.164Z,1.47
2022-12-27T02:09:24.164Z,1.45
2022-12-27T02:12:30.929Z,1.46
2022-12-27T02:15:37.070Z,1.45
2022-12-27T02:18:43.220Z,1.40
2022-12-27T02:22:27.570Z,1.37
2022-12-27T02:25:50.319Z,1.33
2022-12-27T02:29:26.332Z,1.28
2022-12-27T02:32:41.079Z,1.32
2022-12-27T02:35:55.219Z,1.38
2022-12-27T02:39:04.441Z,1.40
2022-12-27T02:42:28.399Z,1.45
2022-12-27T02:45:52.815Z,1.51
2022-12-27T02:49:28.119Z,1.53
2022-12-27T02:53:11.806Z,1.48
2022-12-27T02:57:02.910Z,1.50
2022-12-27T03:00:52.724Z,1.52
2022-12-27T03:04:48.581Z,1.48
2022-12-27T03:08:16.723Z,1.46
2022-12-27T03:11:42.123Z,1.43
2022-12-27T03:15:12.070Z,1.41
2022-12-27T03:18:30.053Z,1.41
2022-12-27T03:22:07.691Z,1.46
2022-12-27T03:25:34.154Z,1.49
2022-12-27T03:29:00.997Z,1.49
2022-12-27T03:32:30.738Z,1.46
2022-12-27T03:35:39.400Z,1.42
2022-12-27T03:38:44.598Z,1.38
2022-12-27T03:42:12.829Z,1.33
2022-12-27T03:45:23.280Z,1.30
2022-12-27T03:48:29.291Z,1.31
2022-12-27T03:51:36.471Z,1.31
2022-12-27T03:54:46.329Z,1.28
2022-12-27T03:57:54.005Z,1.27
2022-12-27T04:00:53.578Z,1.25
2022-12-27T04:03:45.871Z,1.22
2022-12-27T04:06:51.827Z,1.22
2022-12-27T04:10:15.720Z,1.26
2022-12-27T04:13:40.970Z,1.25
2022-12-27T04:17:04.539Z,1.25
2022-12-27T04:20:29.051Z,1.25
2022-12-27T04:23:53.514Z,1.31
2022-12-27T04:27:19.500Z,1.36
2022-12-27T04:30:43.472Z,1.41
2022-12-27T04:34:07.411Z,1.46
2022-12-27T04:37:14.074Z,1.49
2022-12-27T04:40:40.114Z,1.50
2022-12-27T04:44:06.407Z,1.52
2022-12-27T04:47:30.964Z,1.53
2022-12-27T04:51:02.594Z,1.55
2022-12-27T04:54:28.018Z,1.59
2022-12-27T04:57:33.434Z,1.59
2022-12-27T05:01:00.766Z,1.58
2022-12-27T05:04:08.240Z,1.54
2022-12-27T05:07:32.030Z,1.47
2022-12-27T05:10:56.239Z,1.42
2022-12-27T05:14:08.080Z,1.45
2022-12-27T05:17:15.817Z,1.44
2022-12-27T05:20:22.425Z,1.46
2022-12-27T05:23:45.418Z,1.47
2022-12-27T05:26:51.641Z,1.50
2022-12-27T05:29:58.517Z,1.55
2022-12-27T05:33:07.457Z,1.55
2022-12-27T05:36:13.731Z,1.57
2022-12-27T05:39:20.374Z,1.60
2022-12-27T05:42:25.524Z,1.63
2022-12-27T05:45:30.318Z,1.65
2022-12-27T05:48:36.778Z,1.68
2022-12-27T05:51:42.591Z,1.70
2022-12-27T05:54:48.903Z,1.71
2022-12-27T05:57:54.750Z,1.70
2022-12-27T06:01:00.745Z,1.74
2022-12-27T06:04:06.667Z,1.74
2022-12-27T06:07:11.724Z,1.78
2022-12-27T06:10:18.175Z,1.83
2022-12-27T06:13:24.883Z,1.90
2022-12-27T06:16:30.535Z,1.94
2022-12-27T06:19:36.449Z,1.99
2022-12-27T06:22:42.298Z,2.03
2022-12-27T06:25:47.979Z,2.07
2022-12-27T06:28:56.406Z,2.13
2022-12-27T06:32:02.729Z,2.21
2022-12-27T06:35:10.992Z,2.25
2022-12-27T06:38:22.256Z,2.27
2022-12-27T06:41:29.647Z,2.34
2022-12-27T06:44:35.425Z,2.36
2022-12-27T06:47:41.799Z,2.37
2022-12-27T06:50:53.165Z,2.43
2022-12-27T06:53:59.478Z,2.48
2022-12-27T06:57:06.160Z,2.44
2022-12-27T07:00:14.215Z,2.39
2022-12-27T07:03:42.487Z,2.37
2022-12-27T07:06:55.324Z,2.33
2022-12-27T07:10:01.373Z,2.31
2022-12-27T07:13:06.547Z,2.34
2022-12-27T07:16:11.791Z,2.36
2022-12-27T07:19:23.760Z,2.40
2022-12-27T07:22:38.601Z,2.48
2022-12-27T07:25:51.007Z,2.57
2022-12-27T07:28:59.985Z,2.60
2022-12-27T07:32:07.998Z,2.62
2022-12-27T07:35:16.021Z,2.70
2022-12-27T07:38:24.524Z,2.73
2022-12-27T07:41:31.950Z,2.70
2022-12-27T07:44:38.131Z,2.73
2022-12-27T07:47:43.087Z,2.65
2022-12-27T07:50:53.682Z,2.63
2022-12-27T07:54:08.005Z,2.67
2022-12-27T07:57:29.762Z,2.73
2022-12-27T08:00:37.545Z,2.79
2022-12-27T08:03:43.314Z,2.76
2022-12-27T08:06:50.210Z,2.76
2022-12-27T08:09:59.599Z,2.80
2022-12-27T08:13:10.555Z,2.81
2022-12-27T08:16:17.679Z,2.85
2022-12-27T08:22:44.347Z,3.00
2022-12-27T08:25:52.634Z,2.95
2022-12-27T08:29:00.913Z,2.90
2022-12-27T08:32:22.409Z,2.91
2022-12-27T08:35:53.534Z,2.88
2022-12-27T08:39:09.664Z,2.88
2022-12-27T08:42:14.896Z,2.88
2022-12-27T08:45:22.158Z,2.89
2022-12-27T08:48:30.340Z,2.94
2022-12-27T08:51:41.289Z,3.05
2022-12-27T08:54:45.349Z,3.12
2022-12-27T08:57:51.515Z,3.11
2022-12-27T09:00:58.149Z,3.09
2022-12-27T09:04:03.510Z,3.06
2022-12-27T09:07:08.935Z,3.03
2022-12-27T09:10:15.445Z,3.03
2022-12-27T09:13:21.129Z,3.04
2022-12-27T09:16:30.871Z,3.02
2022-12-27T09:19:39.584Z,3.02
2022-12-27T09:22:44.928Z,3.05
2022-12-27T09:25:51.693Z,3.05
2022-12-27T09:28:59.309Z,3.09
2022-12-27T09:32:04.727Z,3.18
2022-12-27T09:35:12.541Z,3.23
2022-12-27T09:38:18.652Z,3.28
2022-12-27T09:45:11.677Z,3.39
2022-12-27T09:48:32.715Z,3.38
2022-12-27T09:51:44.741Z,3.44
2022-12-27T09:55:04.717Z,3.53
2022-12-27T09:58:13.838Z,3.60
2022-12-27T10:01:36.781Z,3.59
2022-12-27T10:05:18.437Z,3.59
2022-12-27T10:08:45.132Z,3.56
2022-12-27T10:12:20.344Z,3.47
2022-12-27T10:15:58.041Z,3.45
2022-12-27T10:19:29.313Z,3.45
2022-12-27T10:22:54.843Z,3.50
2022-12-27T10:26:02.393Z,3.57
2022-12-27T10:29:19.884Z,3.62
2022-12-27T10:32:28.372Z,3.68
2022-12-27T10:35:36.229Z,3.77
2022-12-27T10:38:47.384Z,3.80
2022-12-27T10:42:18.134Z,3.78
2022-12-27T10:45:51.276Z,3.79
2022-12-27T10:49:20.956Z,3.77
2022-12-27T10:52:36.257Z,3.77
2022-12-27T10:55:53.420Z,3.80
2022-12-27T10:59:03.308Z,3.85
2022-12-27T11:02:24.055Z,3.89
2022-12-27T11:05:39.915Z,3.93
2022-12-27T11:08:51.518Z,3.92
2022-12-27T11:11:59.060Z,3.86
2022-12-27T11:15:30.899Z,3.85
2022-12-27T11:18:37.075Z,3.84
2022-12-27T11:21:44.745Z,3.92
2022-12-27T11:24:52.572Z,4.03
2022-12-27T11:28:08.346Z,4.10
2022-12-27T11:31:33.204Z,4.14
2022-12-27T11:34:46.467Z,4.21
2022-12-27T11:37:55.237Z,4.28
2022-12-27T11:41:01.193Z,4.34
2022-12-27T11:44:15.851Z,4.37
2022-12-27T11:47:48.049Z,4.41
2022-12-27T11:51:05.793Z,4.44
2022-12-27T11:55:05.859Z,4.46
2022-12-27T11:58:34.380Z,4.49
2022-12-27T12:01:55.305Z,4.50
2022-12-27T12:05:27.229Z,4.52
2022-12-27T12:09:10.938Z,4.55
2022-12-27T12:12:37.810Z,4.59
2022-12-27T12:15:51.694Z,4.63
2022-12-27T12:19:20.265Z,4.63
2022-12-27T12:22:44.522Z,4.61
2022-12-27T12:26:25.419Z,4.61
2022-12-27T12:29:38.761Z,4.60
2022-12-27T12:33:06.328Z,4.59
2022-12-27T12:36:53.462Z,4.57
2022-12-27T12:40:31.116Z,4.54
2022-12-27T12:44:08.123Z,4.55
2022-12-27T12:47:41.256Z,4.58
2022-12-27T12:51:18.146Z,4.58
2022-12-27T12:55:00.446Z,4.57
2022-12-27T12:58:33.211Z,4.55
2022-12-27T13:01:51.171Z,4.57
2022-12-27T13:05:26.880Z,4.59
2022-12-27T13:08:56.422Z,4.60
2022-12-27T13:12:54.112Z,4.61
2022-12-27T13:16:36.079Z,4.59
2022-12-27T13:20:19.579Z,4.60
2022-12-27T13:23:47.615Z,4.63
2022-12-27T13:27:02.505Z,4.63
2022-12-27T13:30:26.205Z,4.63
2022-12-27T13:33:43.853Z,4.65
2022-12-27T13:37:26.658Z,4.66
2022-12-27T13:40:58.155Z,4.70
2022-12-27T13:44:24.735Z,4.69
2022-12-27T13:47:50.621Z,4.71
2022-12-27T13:51:12.681Z,4.72
2022-12-27T13:54:57.360Z,4.73
2022-12-27T13:58:25.788Z,4.71
2022-12-27T14:01:45.284Z,4.72
2022-12-27T14:05:04.893Z,4.70
2022-12-27T14:09:01.302Z,4.72
2022-12-27T14:12:55.001Z,4.72
2022-12-27T14:16:28.350Z,4.73
2022-12-27T14:19:51.738Z,4.76
2022-12-27T14:23:10.513Z,4.77
2022-12-27T14:26:50.533Z,4.78
2022-12-27T14:30:43.583Z,4.78
2022-12-27T14:34:37.264Z,4.80
2022-12-27T14:38:33.579Z,4.81
2022-12-27T14:42:08.497Z,4.80
2022-12-27T14:45:31.123Z,4.82
2022-12-27T14:48:55.960Z,4.81
2022-12-27T14:52:19.948Z,4.82
2022-12-27T14:55:43.872Z,4.81
2022-12-27T14:59:02.331Z,4.82
2022-12-27T15:02:15.292Z,4.80
2022-12-27T15:05:59.879Z,4.79
2022-12-27T15:09:32.859Z,4.78
2022-12-27T15:13:16.859Z,4.77
2022-12-27T15:16:59.259Z,4.76
2022-12-27T15:20:26.134Z,4.75
2022-12-27T15:24:00.826Z,4.75
2022-12-27T15:27:31.817Z,4.75
2022-12-27T15:31:09.200Z,4.74
2022-12-27T15:35:02.838Z,4.73
2022-12-27T15:38:21.183Z,4.75
2022-12-27T15:41:38.749Z,4.78
2022-12-27T15:45:12.166Z,4.80
2022-12-27T15:48:46.101Z,4.82
2022-12-27T15:52:07.599Z,4.81
2022-12-27T15:55:43.592Z,4.79
2022-12-27T15:58:49.858Z,4.78
2022-12-27T16:01:55.440Z,4.80
2022-12-27T16:05:13.134Z,4.80
2022-12-27T16:08:27.090Z,4.79
2022-12-27T16:11:32.763Z,4.78
2022-12-27T16:14:44.385Z,4.78
2022-12-27T16:18:08.627Z,4.79
2022-12-27T16:21:30.522Z,4.78
2022-12-27T16:24:39.321Z,4.78
2022-12-27T16:27:47.285Z,4.77
2022-12-27T16:31:03.606Z,4.77
2022-12-27T16:34:10.985Z,4.78
2022-12-27T16:37:17.130Z,4.79
2022-12-27T16:40:55.524Z,4.81
2022-12-27T16:44:38.547Z,4.83
2022-12-27T16:48:13.101Z,4.84
2022-12-27T16:51:48.836Z,4.87
2022-12-27T16:55:21.346Z,4.88
2022-12-27T16:58:43.048Z,4.89
2022-12-27T17:02:02.471Z,4.93
2022-12-27T17:05:11.500Z,4.96
2022-12-27T17:08:28.961Z,5.00
2022-12-27T17:11:42.256Z,5.02
2022-12-27T17:14:50.999Z,5.00
2022-12-27T17:17:59.446Z,5.03
2022-12-27T17:21:11.947Z,5.04
2022-12-27T17:24:35.716Z,5.04
2022-12-27T17:28:00.876Z,5.02
2022-12-27T17:31:20.501Z,5.02
2022-12-27T17:34:43.909Z,5.03
2022-12-27T17:38:03.300Z,5.02
2022-12-27T17:41:57.956Z,5.02
2022-12-27T17:45:21.381Z,5.03
2022-12-27T17:48:37.235Z,5.06
2022-12-27T17:51:44.513Z,5.07
2022-12-27T17:55:08.071Z,5.09
2022-12-27T17:58:18.474Z,5.07
2022-12-27T18:01:23.280Z,5.08
2022-12-27T18:04:38.508Z,5.11
2022-12-27T18:07:45.105Z,5.14
2022-12-27T18:10:52.946Z,5.17
2022-12-27T18:14:07.104Z,5.19
2022-12-27T18:17:14.497Z,5.23
2022-12-27T18:20:44.025Z,5.26
2022-12-27T18:24:00.227Z,5.27
2022-12-27T18:27:16.675Z,5.28
2022-12-27T18:30:25.816Z,5.29
2022-12-27T18:33:33.631Z,5.30
2022-12-27T18:36:56.147Z,5.29
2022-12-27T18:40:13.974Z,5.33
2022-12-27T18:43:22.769Z,5.37
2022-12-27T18:46:47.214Z,5.40
2022-12-27T18:49:57.213Z,5.40
2022-12-27T18:53:02.903Z,5.43
2022-12-27T18:56:24.496Z,5.44
2022-12-27T18:59:39.983Z,5.47
2022-12-27T19:02:51.100Z,5.49
2022-12-27T19:06:16.629Z,5.49
2022-12-27T19:09:29.295Z,5.50
2022-12-27T19:12:45.254Z,5.49
2022-12-27T19:15:58.201Z,5.48
2022-12-27T19:19:09.183Z,5.44
2022-12-27T19:22:15.355Z,5.41
2022-12-27T19:25:41.358Z,5.39
2022-12-27T19:28:47.594Z,5.33
2022-12-27T19:31:55.418Z,5.29
2022-12-27T19:35:07.303Z,5.23
2022-12-27T19:38:13.139Z,5.19
2022-12-27T19:41:17.756Z,5.12
2022-12-27T19:44:27.383Z,5.07
2022-12-27T19:47:33.517Z,5.04
2022-12-27T19:50:39.119Z,5.00
2022-12-27T19:53:57.670Z,4.99
2022-12-27T19:57:01.338Z,4.98
2022-12-27T20:00:12.406Z,4.97
2022-12-27T20:03:13.839Z,4.96
2022-12-27T20:06:24.041Z,4.93
2022-12-27T20:09:28.466Z,4.94
2022-12-27T20:12:35.268Z,4.95
2022-12-27T20:15:41.789Z,4.96
2022-12-27T20:18:48.361Z,4.98
2022-12-27T20:21:55.090Z,4.99
2022-12-27T20:25:01.574Z,4.99
2022-12-27T20:28:07.668Z,5.00
2022-12-27T20:31:08.358Z,4.98
2022-12-27T20:34:17.233Z,4.97
2022-12-27T20:37:24.907Z,4.95
2022-12-27T20:40:31.424Z,4.92
2022-12-27T20:43:37.707Z,4.91
2022-12-27T20:46:44.666Z,4.91
2022-12-27T20:49:52.887Z,4.90
2022-12-27T20:52:59.467Z,4.88
2022-12-27T20:56:16.360Z,4.85
2022-12-27T20:59:23.591Z,4.83
2022-12-27T21:02:30.318Z,4.81
2022-12-27T21:05:39.608Z,4.78
2022-12-27T21:08:55.971Z,4.75
2022-12-27T21:11:57.385Z,4.73
2022-12-27T21:15:05.354Z,4.72
2022-12-27T21:18:14.285Z,4.69
2022-12-27T21:21:21.622Z,4.65
2022-12-27T21:24:28.196Z,4.59
2022-12-27T21:27:35.534Z,4.59
2022-12-27T21:30:40.875Z,4.56
2022-12-27T21:33:47.199Z,4.54
2022-12-27T21:36:54.180Z,4.53
2022-12-27T21:40:00.691Z,4.49
2022-12-27T21:43:07.710Z,4.44
2022-12-27T21:46:13.701Z,4.37
2022-12-27T21:49:28.165Z,4.30
2022-12-27T21:52:33.524Z,4.21
2022-12-27T21:55:39.797Z,4.15
2022-12-27T21:58:47.980Z,4.09
2022-12-27T22:01:56.274Z,4.03
2022-12-27T22:05:04.391Z,3.96
2022-12-27T22:08:12.424Z,3.89
2022-12-27T22:11:18.096Z,3.85
2022-12-27T22:14:26.013Z,3.83
2022-12-27T22:17:32.753Z,3.80
2022-12-27T22:20:45.113Z,3.81
2022-12-27T22:23:50.783Z,3.77
2022-12-27T22:26:57.240Z,3.76
2022-12-27T22:30:03.838Z,3.76
2022-12-27T22:33:09.729Z,3.78
2022-12-27T22:36:21.027Z,3.78
2022-12-27T22:39:26.860Z,3.79
2022-12-27T22:42:32.738Z,3.79
2022-12-27T22:45:37.682Z,3.76
2022-12-27T22:48:45.360Z,3.75
2022-12-27T22:51:52.303Z,3.75
2022-12-27T22:55:04.327Z,3.73
2022-12-27T22:58:07.836Z,3.69
2022-12-27T23:01:14.712Z,3.67
2022-12-27T23:04:21.897Z,3.65
2022-12-27T23:08:05.146Z,3.63
2022-12-27T23:10:35.916Z,3.61
2022-12-27T23:13:43.287Z,3.61
2022-12-27T23:16:59.674Z,3.61
2022-12-27T23:20:06.309Z,3.62
2022-12-27T23:23:12.670Z,3.62
2022-12-27T23:26:25.456Z,3.62
2022-12-27T23:29:31.387Z,3.62
2022-12-27T23:32:36.914Z,3.63
2022-12-27T23:35:42.932Z,3.65
2022-12-27T23:38:48.404Z,3.67
2022-12-27T23:41:53.482Z,3.68
2022-12-27T23:44:59.175Z,3.65
2022-12-27T23:48:04.498Z,3.62
2022-12-27T23:51:11.219Z,3.60
2022-12-27T23:54:16.109Z,3.59
2022-12-27T23:57:22.830Z,3.59
